X  Κλείσε Στοιχεία αεροπορικών μετεωρολογικών δεδομένων METAR     LBPD Plovdiv International Airport
θερμοκρασία
18°C θερμοκρασία
14°C Σημείο δρόσου
78% Υγρασία



Ανεμος
3 M/S
6 MPH
10 KM/H
5 KTS



70°
AVA
Τρέχουσες συνθήκες

Σαφή Σαφή
πίεση 1005.08 (hPa) - 29.68 (inHg)
Ορατότητα 6 (μίλι) - 9.7 (km)
Aεροδρόμιο
Κωδικός αεροδρομίου LBPD

Τοποθεσία: Plovdiv International Airport
Απόσταση: 14 (km)

Metar:
LBPD 240900Z AUTO 07005KT 360V130 9999 NCD 18/14 Q1005 NOSIG

ώρα: 24-04-2024 12:00 EEST